Savannah, Missouri
Current Conditions -  °F | °C
As of 5:53 PM on Thursday 18 Dec 2014 (Local Time) from KSTJ Reporting Station
Overcast Overcast  
Wind Chill: 26°   Ceiling: 1000
Heat Index: 31°   Visibility: 8mi
Dew Point: 28°   Wind: 5mph
Humidity: 89%   Direction: 60°ENE
Pressure: 30.24"   Gusts: NA
Location:  39.94°N, 94.83°W
Report Text: KSTJ 182353Z AUTO 06004KT 8SM OVC010 M01/M02 A3024 RMK AO2 SLP248 60000 T10061022 10000 21011 51008
Loading
Personal Weather Stations






























Interactive Weather Map New forecast layout! Learn more

10-Day Weather Forecast

Advertisements
Track Severe Weather on mobile